createdAt,value
2022-10-25T03:17:49.575Z,13.17
2022-10-25T03:21:00.885Z,13.12
2022-10-25T03:24:11.438Z,13.13
2022-10-25T03:27:21.972Z,13.19
2022-10-25T03:30:33.550Z,13.23
2022-10-25T03:33:45.628Z,13.13
2022-10-25T03:36:57.887Z,13.16
2022-10-25T03:40:10.592Z,13.17
2022-10-25T03:46:31.733Z,13.13
2022-10-25T03:49:43.853Z,13.14
2022-10-25T03:52:54.532Z,13.08
2022-10-25T03:56:05.375Z,13.06
2022-10-25T03:59:15.881Z,12.96
2022-10-25T04:02:27.120Z,12.93
2022-10-25T04:05:38.982Z,12.79
2022-10-25T04:08:49.523Z,12.70
2022-10-25T04:11:59.907Z,12.74
2022-10-25T04:15:11.312Z,12.64
2022-10-25T04:18:22.315Z,12.62
2022-10-25T04:21:34.271Z,12.70
2022-10-25T04:24:44.691Z,12.78
2022-10-25T04:27:55.411Z,12.86
2022-10-25T04:31:05.938Z,12.91
2022-10-25T04:34:16.373Z,12.94
2022-10-25T04:37:28.244Z,12.99
2022-10-25T04:40:38.583Z,13.10
2022-10-25T04:43:49.699Z,13.17
2022-10-25T04:47:00.298Z,13.19
2022-10-25T04:50:11.090Z,13.28
2022-10-25T04:53:23.192Z,13.40
2022-10-25T04:56:33.694Z,13.40
2022-10-25T04:59:44.610Z,13.37
2022-10-25T06:58:21.561Z,14.06
2022-10-25T07:01:32.134Z,14.15
2022-10-25T07:04:42.522Z,14.15
2022-10-25T07:07:53.495Z,14.20
2022-10-25T07:11:05.650Z,14.25
2022-10-25T07:14:18.672Z,14.25
2022-10-25T07:17:29.425Z,14.34
2022-10-25T07:20:40.686Z,14.35
2022-10-25T07:23:52.108Z,14.37
2022-10-25T07:27:02.326Z,14.36
2022-10-25T07:30:15.833Z,14.41
2022-10-25T07:33:26.184Z,14.47
2022-10-25T07:36:36.507Z,14.40
2022-10-25T07:39:47.060Z,14.44
2022-10-25T07:42:57.723Z,14.49
2022-10-25T07:46:09.968Z,14.62
2022-10-25T07:49:20.385Z,14.64
2022-10-25T07:52:30.692Z,14.69
2022-10-25T07:55:41.067Z,14.72
2022-10-25T07:58:52.049Z,14.81
2022-10-25T08:02:03.992Z,14.87
2022-10-25T08:05:14.295Z,14.81
2022-10-25T08:08:25.321Z,14.69
2022-10-25T08:11:35.967Z,14.72
2022-10-25T08:14:47.617Z,14.70
2022-10-25T08:18:02.741Z,14.86
2022-10-25T08:21:13.024Z,14.99
2022-10-25T08:24:23.244Z,15.07
2022-10-25T08:27:34.011Z,15.02
2022-10-25T08:30:44.768Z,15.13
2022-10-25T08:33:56.963Z,14.92
2022-10-25T08:37:08.620Z,15.04
2022-10-25T08:40:22.310Z,15.26
2022-10-25T08:43:50.875Z,15.42
2022-10-25T08:47:06.966Z,15.45
2022-10-25T08:50:24.375Z,15.88
2022-10-25T08:53:41.774Z,16.26
2022-10-25T08:57:14.726Z,16.44
2022-10-25T09:00:27.357Z,16.49
2022-10-25T09:03:38.139Z,16.32
2022-10-25T09:07:01.682Z,15.91
2022-10-25T09:10:23.573Z,16.40
2022-10-25T09:13:44.289Z,16.96
2022-10-25T09:17:04.187Z,17.06
2022-10-25T09:20:20.559Z,17.54
2022-10-25T09:23:33.540Z,17.72
2022-10-25T09:26:49.477Z,17.80
2022-10-25T09:30:06.579Z,17.75
2022-10-25T09:33:22.106Z,17.94
2022-10-25T09:36:38.591Z,17.99
2022-10-25T09:39:54.373Z,18.02
2022-10-25T09:43:08.779Z,17.88
2022-10-25T09:46:23.987Z,17.74
2022-10-25T09:49:43.160Z,17.88
2022-10-25T09:53:06.354Z,18.27
2022-10-25T09:56:19.197Z,18.02
2022-10-25T09:59:30.860Z,18.29
2022-10-25T10:02:41.675Z,18.94
2022-10-25T10:05:59.836Z,19.63
2022-10-25T10:09:14.617Z,20.19
2022-10-25T10:12:32.017Z,19.77
2022-10-25T10:15:51.577Z,19.67
2022-10-25T10:19:18.527Z,19.60
2022-10-25T10:22:29.313Z,19.50
2022-10-25T10:25:46.875Z,20.12
2022-10-25T10:29:08.883Z,19.90
2022-10-25T10:32:27.012Z,19.50
2022-10-25T10:35:38.399Z,20.13
2022-10-25T10:38:49.003Z,20.92
2022-10-25T10:42:04.385Z,21.27
2022-10-25T10:45:19.546Z,21.42
2022-10-25T10:48:40.410Z,21.60
2022-10-25T10:51:54.406Z,21.48
2022-10-25T10:55:05.441Z,21.27
2022-10-25T10:58:17.884Z,21.30
2022-10-25T11:01:34.683Z,21.14
2022-10-25T11:04:50.378Z,21.35
2022-10-25T11:08:03.088Z,21.20
2022-10-25T11:11:15.392Z,20.81
2022-10-25T11:14:25.891Z,20.47
2022-10-25T11:17:40.859Z,20.65
2022-10-25T11:20:56.774Z,20.72
2022-10-25T11:24:19.325Z,21.00
2022-10-25T11:27:42.060Z,20.88
2022-10-25T11:31:03.736Z,20.70
2022-10-25T11:34:26.386Z,20.83
2022-10-25T11:37:43.387Z,20.40
2022-10-25T11:41:05.980Z,20.59
2022-10-25T11:44:39.777Z,20.49
2022-10-25T11:48:07.738Z,20.73
2022-10-25T11:51:30.592Z,20.64
2022-10-25T11:54:47.864Z,20.25
2022-10-25T11:58:12.347Z,19.49
2022-10-25T12:01:37.630Z,19.03
2022-10-25T12:05:02.904Z,19.25
2022-10-25T12:08:31.080Z,19.36
2022-10-25T12:11:46.795Z,19.10
2022-10-25T12:15:00.983Z,18.87
2022-10-25T12:18:16.781Z,18.67
2022-10-25T12:21:32.314Z,18.69
2022-10-25T12:24:50.121Z,18.57
2022-10-25T12:28:10.933Z,18.47
2022-10-25T12:31:26.515Z,18.59
2022-10-25T12:34:43.400Z,18.71
2022-10-25T12:37:58.857Z,18.63
2022-10-25T12:41:20.794Z,18.67
2022-10-25T12:44:47.921Z,18.84
2022-10-25T12:48:11.745Z,19.34
2022-10-25T12:51:39.778Z,19.67
2022-10-25T12:55:05.218Z,19.83
2022-10-25T12:58:30.732Z,19.94
2022-10-25T13:01:58.845Z,20.01
2022-10-25T13:05:32.070Z,19.89
2022-10-25T13:08:42.933Z,19.79
2022-10-25T13:11:59.803Z,19.42
2022-10-25T13:15:20.386Z,19.19
2022-10-25T13:18:42.952Z,19.17
2022-10-25T13:22:11.972Z,19.48
2022-10-25T13:25:59.502Z,19.40
2022-10-25T13:29:39.208Z,19.11
2022-10-25T13:33:27.704Z,18.77
2022-10-25T13:36:48.221Z,18.80
2022-10-25T13:40:00.008Z,18.59
2022-10-25T13:43:21.382Z,18.40
2022-10-25T13:46:36.189Z,18.24
2022-10-25T13:49:49.795Z,18.32
2022-10-25T13:53:04.873Z,18.19
2022-10-25T13:56:34.341Z,17.98
2022-10-25T14:00:00.853Z,17.85
2022-10-25T14:03:28.496Z,17.79
2022-10-25T14:06:42.699Z,17.77
2022-10-25T14:09:55.210Z,17.60
2022-10-25T14:13:17.710Z,17.53
2022-10-25T14:16:32.240Z,17.39
2022-10-25T14:19:46.527Z,17.47
2022-10-25T14:23:03.745Z,17.59
2022-10-25T14:26:16.814Z,17.62
2022-10-25T14:29:29.621Z,17.57
2022-10-25T14:32:49.843Z,17.53
2022-10-25T14:36:10.627Z,17.49
2022-10-25T14:39:25.285Z,17.48
2022-10-25T14:42:40.271Z,17.48
2022-10-25T14:46:00.707Z,17.46
2022-10-25T14:49:12.057Z,17.43
2022-10-25T14:52:24.291Z,17.40
2022-10-25T14:55:36.974Z,17.31
2022-10-25T14:58:49.384Z,17.18
2022-10-25T15:02:04.562Z,17.17
2022-10-25T15:05:20.096Z,17.12
2022-10-25T15:08:30.533Z,17.02
2022-10-25T15:12:02.056Z,16.96
2022-10-25T15:15:32.821Z,16.89
2022-10-25T15:18:44.786Z,16.87
2022-10-25T15:22:08.255Z,16.88
2022-10-25T15:25:29.122Z,16.91
2022-10-25T15:28:52.046Z,16.88
2022-10-25T15:32:02.635Z,16.83
2022-10-25T15:35:25.454Z,16.72
2022-10-25T15:39:05.847Z,16.60
2022-10-25T15:42:10.468Z,16.51
2022-10-25T15:45:32.436Z,16.42
2022-10-25T15:48:44.341Z,16.31
2022-10-25T15:51:55.866Z,16.21
2022-10-25T15:55:21.405Z,16.07
2022-10-25T15:58:32.164Z,15.92
2022-10-25T16:01:46.474Z,15.80
2022-10-25T16:04:57.339Z,15.65
2022-10-25T16:08:14.285Z,15.54
2022-10-25T16:11:24.848Z,15.41
2022-10-25T16:14:37.415Z,15.27
2022-10-25T16:17:50.228Z,15.09
2022-10-25T16:21:00.874Z,14.92
2022-10-25T16:24:12.948Z,14.75
2022-10-25T16:27:23.374Z,14.64
2022-10-25T16:30:36.514Z,14.53
2022-10-25T16:33:50.645Z,14.42
2022-10-25T16:37:01.391Z,14.33
2022-10-25T16:40:16.275Z,14.20
2022-10-25T16:43:29.148Z,14.08
2022-10-25T16:46:47.451Z,13.96
2022-10-25T16:49:59.194Z,13.88
2022-10-25T16:53:22.129Z,13.81
2022-10-25T16:56:32.587Z,13.72
2022-10-25T16:59:42.496Z,13.62
2022-10-25T17:02:52.585Z,13.52
2022-10-25T17:06:22.190Z,13.41
2022-10-25T17:13:01.447Z,13.29
2022-10-25T17:16:13.592Z,13.27
2022-10-25T17:19:23.534Z,13.22
2022-10-25T17:22:34.931Z,13.17
2022-10-25T17:25:44.949Z,13.13
2022-10-25T17:29:00.855Z,13.04
2022-10-25T17:32:10.803Z,12.95
2022-10-25T17:35:28.501Z,12.85
2022-10-25T17:38:41.228Z,12.75
2022-10-25T18:11:11.409Z,12.16
2022-10-25T18:14:22.369Z,12.06
2022-10-25T18:32:17.259Z,11.61
2022-10-25T18:35:27.611Z,11.55
2022-10-25T18:38:37.946Z,11.49
2022-10-25T18:41:49.341Z,11.43
2022-10-25T18:45:00.398Z,11.33
2022-10-25T18:48:10.369Z,11.18
2022-10-25T19:06:27.013Z,11.06
2022-10-25T19:10:27.500Z,11.01
2022-10-25T19:13:38.073Z,11.01
2022-10-25T19:16:48.336Z,11.03
2022-10-25T19:19:58.048Z,10.99
2022-10-25T19:23:09.577Z,10.96
2022-10-25T19:26:21.101Z,10.87
2022-10-25T19:29:30.819Z,10.79
2022-10-25T19:32:41.510Z,10.72
2022-10-25T19:40:40.354Z,10.74
2022-10-25T19:48:16.896Z,10.70
2022-10-25T19:51:27.269Z,10.68
2022-10-25T19:54:37.081Z,10.67
2022-10-25T20:08:41.359Z,10.46
2022-10-25T20:11:51.224Z,10.48
